HAZ1625 ZUUU-ZPPP
Flight info
| Callsign | HAZ1625 |
|---|---|
| Flight time | 0h 57m |
| Altitude | 36100 |
| Route | LUVEN9W LUVEN G212 NIXAS NIXAS1A |
| Aircraft | B738/M-SDE2E3FGHIRWXY/LB1 |
Departure
| Time | 2026-05-04 08:00 |
|---|---|
| Airport | Chengdu Shuangliu International Airport (ZUUU) |
Arrival
| Time | 2026-05-04 08:57 |
|---|---|
| Airport | Kunming Changshui International Airport (ZPPP) |
| Time | Latitude | Longitude | Altitude | Speed | Heading |
|---|---|---|---|---|---|
| 2026-05-04 07:43 | 30.56916 | 103.95035 | 1646 ft | 0 kts | 25° |
| 2026-05-04 07:49 | 30.56899 | 103.95025 | 1646 ft | 4 kts | 30° |
| 2026-05-04 07:50 | 30.56877 | 103.95008 | 1646 ft | 4 kts | 42° |
| 2026-05-04 07:50 | 30.56860 | 103.94984 | 1646 ft | 4 kts | 67° |
| 2026-05-04 07:50 | 30.56856 | 103.94959 | 1646 ft | 2 kts | 114° |
| 2026-05-04 07:50 | 30.56857 | 103.94958 | 1646 ft | 1 kts | 114° |
| 2026-05-04 07:53 | 30.56857 | 103.94959 | 1646 ft | 1 kts | 114° |
| 2026-05-04 07:54 | 30.56694 | 103.95413 | 1646 ft | 15 kts | 112° |
| 2026-05-04 07:55 | 30.56622 | 103.95492 | 1646 ft | 16 kts | 186° |
| 2026-05-04 07:55 | 30.56513 | 103.95443 | 1646 ft | 18 kts | 202° |
| 2026-05-04 07:55 | 30.56400 | 103.95391 | 1646 ft | 18 kts | 199° |
| 2026-05-04 07:55 | 30.56284 | 103.95330 | 1646 ft | 18 kts | 206° |
| 2026-05-04 07:56 | 30.56172 | 103.95283 | 1646 ft | 17 kts | 200° |
| 2026-05-04 07:56 | 30.56058 | 103.95235 | 1646 ft | 17 kts | 200° |
| 2026-05-04 07:56 | 30.55948 | 103.95187 | 1646 ft | 17 kts | 200° |
| 2026-05-04 07:56 | 30.55843 | 103.95140 | 1646 ft | 16 kts | 201° |
| 2026-05-04 07:57 | 30.55739 | 103.95091 | 1641 ft | 18 kts | 201° |
| 2026-05-04 07:57 | 30.55619 | 103.95037 | 1646 ft | 18 kts | 201° |
| 2026-05-04 07:57 | 30.55502 | 103.94983 | 1646 ft | 18 kts | 200° |
| 2026-05-04 07:57 | 30.55389 | 103.94932 | 1646 ft | 17 kts | 201° |
| 2026-05-04 07:58 | 30.55281 | 103.94882 | 1646 ft | 16 kts | 204° |
| 2026-05-04 07:58 | 30.55178 | 103.94830 | 1646 ft | 16 kts | 202° |
| 2026-05-04 07:58 | 30.55075 | 103.94791 | 1646 ft | 15 kts | 189° |
| 2026-05-04 07:58 | 30.55009 | 103.94871 | 1645 ft | 15 kts | 113° |
| 2026-05-04 07:59 | 30.54965 | 103.94993 | 1642 ft | 18 kts | 113° |
| 2026-05-04 07:59 | 30.54859 | 103.95019 | 1643 ft | 17 kts | 201° |
| 2026-05-04 07:59 | 30.54630 | 103.94913 | 1645 ft | 69 kts | 202° |
| 2026-05-04 07:59 | 30.53958 | 103.94602 | 1651 ft | 136 kts | 201° |
| 2026-05-04 08:00 | 30.52922 | 103.94119 | 1706 ft | 186 kts | 202° |
| 2026-05-04 08:00 | 30.51659 | 103.93489 | 2388 ft | 196 kts | 198° |
| 2026-05-04 08:00 | 30.50429 | 103.93229 | 3666 ft | 170 kts | 184° |
| 2026-05-04 08:02 | 30.39487 | 103.91795 | 6572 ft | 269 kts | 186° |
| 2026-05-04 08:02 | 30.37617 | 103.91543 | 7257 ft | 273 kts | 186° |
| 2026-05-04 08:02 | 30.35734 | 103.91290 | 7954 ft | 276 kts | 187° |
| 2026-05-04 08:03 | 30.33813 | 103.91030 | 8614 ft | 281 kts | 187° |
| 2026-05-04 08:03 | 30.31849 | 103.90765 | 9336 ft | 285 kts | 188° |
| 2026-05-04 08:03 | 30.29864 | 103.90494 | 10027 ft | 290 kts | 188° |
| 2026-05-04 08:03 | 30.27805 | 103.90213 | 10395 ft | 308 kts | 188° |
| 2026-05-04 08:04 | 30.25590 | 103.89908 | 10545 ft | 331 kts | 188° |
| 2026-05-04 08:04 | 30.23222 | 103.89583 | 10710 ft | 353 kts | 188° |
| 2026-05-04 08:04 | 30.20718 | 103.89240 | 10946 ft | 370 kts | 188° |
| 2026-05-04 08:04 | 30.18131 | 103.88888 | 11399 ft | 377 kts | 188° |
| 2026-05-04 08:05 | 30.15507 | 103.88531 | 12046 ft | 380 kts | 188° |
| 2026-05-04 08:05 | 30.12897 | 103.88176 | 12620 ft | 386 kts | 188° |
| 2026-05-04 08:05 | 30.10174 | 103.87806 | 13219 ft | 391 kts | 188° |
| 2026-05-04 08:05 | 30.07437 | 103.87746 | 13816 ft | 399 kts | 173° |
| 2026-05-04 08:06 | 30.04774 | 103.88718 | 14352 ft | 405 kts | 155° |
| 2026-05-04 08:06 | 30.02245 | 103.90195 | 14946 ft | 409 kts | 153° |
| 2026-05-04 08:06 | 29.99735 | 103.91706 | 15509 ft | 414 kts | 153° |
| 2026-05-04 08:06 | 29.97167 | 103.93251 | 16083 ft | 418 kts | 154° |
| 2026-05-04 08:08 | 29.78292 | 104.04175 | 19683 ft | 447 kts | 163° |
| 2026-05-04 08:08 | 29.75255 | 104.04867 | 20124 ft | 442 kts | 182° |
| 2026-05-04 08:10 | 29.50122 | 104.03740 | 23618 ft | 465 kts | 188° |
| 2026-05-04 08:11 | 29.46877 | 104.03613 | 23930 ft | 467 kts | 188° |
| 2026-05-04 08:11 | 29.40375 | 104.03355 | 24556 ft | 472 kts | 188° |
| 2026-05-04 08:11 | 29.37078 | 104.03246 | 24863 ft | 476 kts | 187° |
| 2026-05-04 08:12 | 29.33743 | 104.03250 | 25160 ft | 480 kts | 186° |
| 2026-05-04 08:12 | 29.30395 | 104.03319 | 25447 ft | 483 kts | 185° |
| 2026-05-04 08:12 | 29.27021 | 104.03408 | 25719 ft | 485 kts | 185° |
| 2026-05-04 08:12 | 29.23633 | 104.03494 | 26008 ft | 487 kts | 186° |
| 2026-05-04 08:13 | 29.20241 | 104.03568 | 26286 ft | 489 kts | 186° |
| 2026-05-04 08:13 | 29.16833 | 104.03631 | 26552 ft | 491 kts | 186° |
| 2026-05-04 08:13 | 29.13404 | 104.03686 | 26810 ft | 493 kts | 187° |
| 2026-05-04 08:13 | 29.09979 | 104.03736 | 27076 ft | 494 kts | 187° |
| 2026-05-04 08:14 | 29.06571 | 104.03785 | 27353 ft | 496 kts | 187° |
| 2026-05-04 08:14 | 29.03109 | 104.03834 | 27610 ft | 498 kts | 187° |
| 2026-05-04 08:14 | 28.99633 | 104.03884 | 27825 ft | 500 kts | 187° |
| 2026-05-04 08:16 | 28.75254 | 104.04244 | 29885 ft | 502 kts | 188° |
| 2026-05-04 08:16 | 28.71757 | 104.04295 | 30229 ft | 500 kts | 187° |
| 2026-05-04 08:16 | 28.68288 | 104.04347 | 30595 ft | 498 kts | 187° |
| 2026-05-04 08:17 | 28.64829 | 104.04398 | 30944 ft | 496 kts | 188° |
| 2026-05-04 08:17 | 28.61386 | 104.04332 | 31236 ft | 487 kts | 194° |
| 2026-05-04 08:17 | 28.58098 | 104.03668 | 31456 ft | 476 kts | 204° |
| 2026-05-04 08:17 | 28.55004 | 104.02478 | 31766 ft | 464 kts | 212° |
| 2026-05-04 08:19 | 28.36645 | 103.89767 | 35219 ft | 405 kts | 221° |
| 2026-05-04 08:19 | 28.34304 | 103.88124 | 35772 ft | 399 kts | 221° |
| 2026-05-04 08:20 | 28.31941 | 103.86454 | 36070 ft | 399 kts | 221° |
| 2026-05-04 08:20 | 28.29570 | 103.84770 | 36036 ft | 406 kts | 222° |
| 2026-05-04 08:20 | 28.24719 | 103.81337 | 36090 ft | 416 kts | 221° |
| 2026-05-04 08:21 | 28.19736 | 103.77826 | 36082 ft | 428 kts | 221° |
| 2026-05-04 08:21 | 28.14650 | 103.74260 | 36072 ft | 438 kts | 221° |
| 2026-05-04 08:22 | 28.10291 | 103.71210 | 36073 ft | 445 kts | 221° |
| 2026-05-04 08:24 | 27.89012 | 103.56373 | 36085 ft | 445 kts | 220° |
| 2026-05-04 08:24 | 27.83738 | 103.52698 | 36098 ft | 444 kts | 220° |
| 2026-05-04 08:25 | 27.78479 | 103.49039 | 36099 ft | 444 kts | 220° |
| 2026-05-04 08:25 | 27.73205 | 103.45373 | 36090 ft | 445 kts | 220° |
| 2026-05-04 08:27 | 27.51903 | 103.30611 | 36117 ft | 453 kts | 220° |
| 2026-05-04 08:28 | 27.46562 | 103.26923 | 36106 ft | 452 kts | 220° |
| 2026-05-04 08:28 | 27.40831 | 103.23812 | 36125 ft | 463 kts | 210° |
| 2026-05-04 08:29 | 27.34787 | 103.21221 | 36099 ft | 463 kts | 209° |
| 2026-05-04 08:31 | 27.10866 | 103.10676 | 36111 ft | 463 kts | 210° |
| 2026-05-04 08:33 | 26.89779 | 103.01400 | 36003 ft | 463 kts | 209° |
| 2026-05-04 08:33 | 26.86845 | 103.00120 | 36206 ft | 454 kts | 210° |
| 2026-05-04 08:35 | 26.63036 | 102.89679 | 36070 ft | 455 kts | 210° |
| 2026-05-04 08:35 | 26.60100 | 102.88398 | 35563 ft | 448 kts | 210° |
| 2026-05-04 08:35 | 26.57195 | 102.87121 | 34679 ft | 448 kts | 210° |
| 2026-05-04 08:37 | 26.39430 | 102.79347 | 29578 ft | 457 kts | 208° |
| 2026-05-04 08:37 | 26.36460 | 102.78050 | 28604 ft | 459 kts | 207° |
| 2026-05-04 08:37 | 26.33485 | 102.76750 | 27774 ft | 457 kts | 207° |
| 2026-05-04 08:38 | 26.30541 | 102.75467 | 27219 ft | 450 kts | 207° |
| 2026-05-04 08:38 | 26.27635 | 102.74203 | 26585 ft | 445 kts | 207° |
| 2026-05-04 08:38 | 26.24750 | 102.72945 | 25896 ft | 443 kts | 207° |
| 2026-05-04 08:40 | 26.05193 | 102.64372 | 21611 ft | 420 kts | 206° |
| 2026-05-04 08:40 | 26.02502 | 102.63203 | 21295 ft | 412 kts | 201° |
| 2026-05-04 08:40 | 25.99658 | 102.62848 | 21066 ft | 413 kts | 179° |
| 2026-05-04 08:41 | 25.96860 | 102.63650 | 20827 ft | 420 kts | 161° |
| 2026-05-04 08:41 | 25.94265 | 102.65153 | 20579 ft | 422 kts | 149° |
| 2026-05-04 08:41 | 25.92037 | 102.67242 | 20333 ft | 414 kts | 136° |
| 2026-05-04 08:41 | 25.90116 | 102.69538 | 20084 ft | 398 kts | 135° |
| 2026-05-04 08:42 | 25.88261 | 102.71750 | 19831 ft | 384 kts | 136° |
| 2026-05-04 08:42 | 25.86465 | 102.73838 | 19591 ft | 373 kts | 137° |
| 2026-05-04 08:42 | 25.84552 | 102.75693 | 19346 ft | 358 kts | 148° |
| 2026-05-04 08:42 | 25.82505 | 102.77255 | 19110 ft | 358 kts | 150° |
| 2026-05-04 08:43 | 25.80400 | 102.78816 | 18902 ft | 367 kts | 150° |
| 2026-05-04 08:43 | 25.78292 | 102.80422 | 18680 ft | 366 kts | 147° |
| 2026-05-04 08:43 | 25.76499 | 102.82423 | 18450 ft | 368 kts | 124° |
| 2026-05-04 08:43 | 25.75510 | 102.84986 | 18172 ft | 358 kts | 101° |
| 2026-05-04 08:44 | 25.75363 | 102.87683 | 17909 ft | 344 kts | 82° |
| 2026-05-04 08:44 | 25.75901 | 102.90171 | 17651 ft | 330 kts | 68° |
| 2026-05-04 08:46 | 25.68822 | 103.01950 | 15661 ft | 304 kts | 166° |
| 2026-05-04 08:46 | 25.66845 | 103.02686 | 15214 ft | 302 kts | 165° |
| 2026-05-04 08:46 | 25.64864 | 103.03436 | 15034 ft | 299 kts | 165° |
| 2026-05-04 08:46 | 25.62882 | 103.04194 | 14776 ft | 304 kts | 165° |
| 2026-05-04 08:47 | 25.60890 | 103.04961 | 14591 ft | 301 kts | 165° |
| 2026-05-04 08:47 | 25.58915 | 103.05725 | 14318 ft | 299 kts | 165° |
| 2026-05-04 08:47 | 25.56955 | 103.06485 | 14055 ft | 297 kts | 164° |
| 2026-05-04 08:47 | 25.55018 | 103.07236 | 13892 ft | 292 kts | 164° |
| 2026-05-04 08:48 | 25.53116 | 103.07974 | 13713 ft | 286 kts | 164° |
| 2026-05-04 08:48 | 25.51265 | 103.08693 | 13595 ft | 278 kts | 164° |
| 2026-05-04 08:48 | 25.49484 | 103.09449 | 13453 ft | 272 kts | 154° |
| 2026-05-04 08:48 | 25.48048 | 103.10811 | 13231 ft | 275 kts | 130° |
| 2026-05-04 08:49 | 25.46861 | 103.12472 | 13007 ft | 273 kts | 129° |
| 2026-05-04 08:50 | 25.38988 | 103.16144 | 11570 ft | 221 kts | 213° |
| 2026-05-04 08:50 | 25.37641 | 103.15301 | 11322 ft | 222 kts | 214° |
| 2026-05-04 08:51 | 25.36344 | 103.14397 | 11121 ft | 219 kts | 218° |
| 2026-05-04 08:51 | 25.35119 | 103.13419 | 10885 ft | 215 kts | 220° |
| 2026-05-04 08:51 | 25.33944 | 103.12423 | 10698 ft | 210 kts | 221° |
| 2026-05-04 08:51 | 25.32818 | 103.11445 | 10655 ft | 207 kts | 221° |
| 2026-05-04 08:52 | 25.31682 | 103.10454 | 10662 ft | 208 kts | 221° |
| 2026-05-04 08:52 | 25.30542 | 103.09458 | 10677 ft | 209 kts | 221° |
| 2026-05-04 08:52 | 25.29401 | 103.08460 | 10683 ft | 209 kts | 221° |
| 2026-05-04 08:52 | 25.28257 | 103.07461 | 10658 ft | 209 kts | 221° |
| 2026-05-04 08:53 | 25.27103 | 103.06451 | 10451 ft | 214 kts | 221° |
| 2026-05-04 08:54 | 25.19713 | 102.99993 | 8799 ft | 163 kts | 221° |
| 2026-05-04 08:55 | 25.18841 | 102.99232 | 8577 ft | 155 kts | 221° |
| 2026-05-04 08:55 | 25.18012 | 102.98509 | 8372 ft | 150 kts | 221° |
| 2026-05-04 08:55 | 25.17207 | 102.97803 | 8189 ft | 148 kts | 222° |
| 2026-05-04 08:55 | 25.16392 | 102.97088 | 8015 ft | 150 kts | 221° |
| 2026-05-04 08:57 | 25.11042 | 102.92433 | 6903 ft | 38 kts | 203° |
| 2026-05-04 09:01 | 25.11031 | 102.93086 | 6901 ft | 19 kts | 129° |
| 2026-05-04 09:01 | 25.10952 | 102.93197 | 6901 ft | 18 kts | 128° |
| 2026-05-04 09:01 | 25.10870 | 102.93310 | 6899 ft | 19 kts | 129° |
| 2026-05-04 09:01 | 25.10784 | 102.93428 | 6897 ft | 18 kts | 129° |
| 2026-05-04 09:02 | 25.10707 | 102.93535 | 6896 ft | 18 kts | 127° |
| 2026-05-04 09:02 | 25.10633 | 102.93638 | 6894 ft | 17 kts | 128° |
| 2026-05-04 09:02 | 25.10560 | 102.93737 | 6893 ft | 16 kts | 129° |
| 2026-05-04 09:02 | 25.10468 | 102.93779 | 6893 ft | 16 kts | 207° |
| 2026-05-04 09:03 | 25.10381 | 102.93710 | 6893 ft | 15 kts | 218° |
| 2026-05-04 09:03 | 25.10327 | 102.93663 | 6893 ft | 15 kts | 218° |
| 2026-05-04 09:03 | 25.10159 | 102.93517 | 6894 ft | 13 kts | 218° |
| 2026-05-04 09:04 | 25.10091 | 102.93458 | 6894 ft | 10 kts | 223° |
| 2026-05-04 09:04 | 25.10062 | 102.93394 | 6895 ft | 9 kts | 269° |
| 2026-05-04 09:04 | 25.10076 | 102.93330 | 6895 ft | 9 kts | 301° |
| 2026-05-04 09:04 | 25.10130 | 102.93318 | 6895 ft | 8 kts | 11° |
| 2026-05-04 09:05 | 25.10177 | 102.93330 | 6895 ft | 6 kts | 13° |
| 2026-05-04 09:05 | 25.10201 | 102.93336 | 6895 ft | 2 kts | 13° |
| 2026-05-04 09:05 | 25.10211 | 102.93339 | 6896 ft | 1 kts | 12° |
| 2026-05-04 09:05 | 25.10214 | 102.93339 | 6896 ft | 0 kts | 13° |